Time;durP1;ratioP1;P1;durP2;ratioP2;P2;SDS_P1;SDS_P2;PMS_P1;PMS_P2;Temp;Humidity;BMP_temperature;BMP_pressure;BME280_temperature;BME280_humidity;BME280_pressure;Samples;Min_cycle;Max_cycle;Signal;HPM_P1;HPM_P2
2022/05/16 00:00:31;;;;;;;5.12;2.87;;;;;;;19.68;40.71;100610.03;5378015;32;34741;-68
2022/05/16 00:03:33;;;;;;;7.37;3.10;;;;;;;19.97;39.96;100592.75;5393123;32;35295;-70
2022/05/16 00:06:35;;;;;;;11.70;3.28;;;;;;;20.68;38.63;100612.25;5383380;32;34610;-68
2022/05/16 00:09:38;;;;;;;8.80;2.78;;;;;;;20.07;40.05;100616.06;5386177;32;34707;-69
2022/05/16 00:12:41;;;;;;;6.00;3.03;;;;;;;19.57;41.35;100610.78;5360898;32;34801;-69
2022/05/16 00:15:43;;;;;;;7.55;3.28;;;;;;;19.93;40.87;100619.75;5398272;32;35254;-69
2022/05/16 00:18:45;;;;;;;8.80;3.50;;;;;;;20.33;39.96;100617.59;5383673;32;34631;-68
2022/05/16 00:21:47;;;;;;;7.85;3.40;;;;;;;19.34;42.37;100627.63;5386971;32;34842;-70
2022/05/16 00:24:50;;;;;;;12.73;6.53;;;;;;;19.24;42.86;100627.41;5380415;32;44781;-69
2022/05/16 00:27:52;;;;;;;7.57;3.37;;;;;;;19.26;42.89;100622.00;5381221;32;35450;-69
2022/05/16 00:30:54;;;;;;;8.90;3.40;;;;;;;19.74;41.63;100615.78;5398090;32;35618;-69
2022/05/16 00:33:57;;;;;;;7.22;3.50;;;;;;;19.66;41.85;100620.84;5383364;32;35239;-66
2022/05/16 00:36:59;;;;;;;7.82;3.42;;;;;;;19.76;41.73;100618.31;5398377;32;34761;-69
2022/05/16 00:40:01;;;;;;;8.00;3.90;;;;;;;19.69;41.90;100625.06;5384008;32;34648;-66
2022/05/16 00:43:10;;;;;;;7.93;3.25;;;;;;;19.20;43.26;100636.59;5388393;32;35504;-68
2022/05/16 00:46:14;;;;;;;8.13;3.62;;;;;;;18.88;44.71;100645.03;5394324;32;36158;-68
2022/05/16 00:49:37;;;;;;;7.65;3.70;;;;;;;19.39;43.22;100652.12;5370114;32;34740;-69
2022/05/16 00:52:44;;;;;;;8.38;3.85;;;;;;;19.25;43.15;100661.09;5399487;32;35049;-66
2022/05/16 00:55:46;;;;;;;8.52;3.75;;;;;;;19.13;43.30;100651.31;5380644;32;34631;-66
2022/05/16 00:58:49;;;;;;;8.70;4.15;;;;;;;19.43;43.04;100653.59;5393185;32;34475;-70
2022/05/16 01:05:12;;;;;;;8.10;3.40;;;;;;;19.97;40.87;100658.59;5382947;32;34790;-66
2022/05/16 01:08:17;;;;;;;10.80;4.07;;;;;;;19.63;41.15;100666.38;5382259;32;34681;-67
2022/05/16 01:11:19;;;;;;;6.57;3.50;;;;;;;18.87;42.77;100666.44;5354071;32;43122;-66
2022/05/16 01:14:38;;;;;;;8.98;3.55;;;;;;;20.04;40.59;100656.31;5374376;32;35440;-69
2022/05/16 01:17:40;;;;;;;9.27;3.60;;;;;;;20.32;39.63;100641.75;5387763;32;35171;-69
2022/05/16 01:21:13;;;;;;;7.60;3.40;;;;;;;19.27;41.35;100671.66;5355568;32;36623;-69
2022/05/16 01:24:16;;;;;;;6.35;3.28;;;;;;;18.60;42.81;100658.50;5383381;32;35353;-66
2022/05/16 01:27:19;;;;;;;9.85;4.10;;;;;;;18.57;42.97;100661.38;5361470;32;44552;-69
2022/05/16 01:30:27;;;;;;;10.13;3.80;;;;;;;18.75;42.11;100660.16;5398047;32;35530;-65
2022/05/16 01:33:29;;;;;;;7.72;3.80;;;;;;;18.93;41.98;100652.69;5370811;32;34652;-71
2022/05/16 01:36:31;;;;;;;10.52;3.80;;;;;;;18.43;43.34;100638.38;5381809;32;34206;-67
2022/05/16 01:39:33;;;;;;;8.43;3.70;;;;;;;18.45;43.82;100657.75;5385125;32;35158;-67
2022/05/16 01:42:35;;;;;;;17.07;4.40;;;;;;;18.53;44.37;100651.88;5380934;32;34198;-68
2022/05/16 01:45:39;;;;;;;7.03;3.62;;;;;;;18.23;45.54;100650.34;5397755;32;37202;-69
2022/05/16 01:48:41;;;;;;;8.32;3.75;;;;;;;18.94;44.09;100655.28;5368865;32;35225;-68
2022/05/16 01:51:43;;;;;;;18.33;3.87;;;;;;;19.38;43.12;100666.41;5393416;32;35471;-66
2022/05/16 01:54:45;;;;;;;11.68;4.10;;;;;;;18.98;44.20;100665.69;5388830;32;35640;-65
2022/05/16 01:57:47;;;;;;;10.60;3.77;;;;;;;18.61;45.31;100647.78;5355504;32;34186;-69
2022/05/16 02:00:50;;;;;;;11.50;4.03;;;;;;;18.55;45.40;100663.31;5396431;32;44565;-69
2022/05/16 02:03:52;;;;;;;11.15;3.90;;;;;;;18.53;45.60;100658.06;5382354;32;36475;-67
2022/05/16 02:06:54;;;;;;;14.93;4.75;;;;;;;18.33;45.99;100662.06;5398058;32;35294;-68
2022/05/16 02:09:56;;;;;;;11.87;3.70;;;;;;;18.25;46.26;100668.88;5383028;32;34732;-66
2022/05/16 02:12:59;;;;;;;11.77;4.68;;;;;;;18.08;46.17;100662.00;5368557;32;34269;-69
2022/05/16 02:16:01;;;;;;;8.45;4.10;;;;;;;18.58;44.86;100668.41;5388645;32;35100;-67
2022/05/16 02:19:03;;;;;;;10.88;3.92;;;;;;;18.11;45.83;100667.13;5383445;32;33324;-66
2022/05/16 02:25:27;;;;;;;11.65;4.10;;;;;;;18.77;44.32;100671.56;5366911;32;43433;-67
2022/05/16 02:28:29;;;;;;;10.88;4.10;;;;;;;18.92;43.54;100665.16;5399714;32;35574;-67
2022/05/16 02:31:31;;;;;;;12.17;4.47;;;;;;;18.58;45.11;100676.41;5381523;32;34604;-66
2022/05/16 02:34:33;;;;;;;7.65;3.70;;;;;;;18.56;44.61;100678.31;5384061;32;34319;-66
2022/05/16 02:37:35;;;;;;;9.30;3.80;;;;;;;18.08;44.96;100680.63;5382784;32;35097;-66
2022/05/16 02:40:37;;;;;;;8.23;3.90;;;;;;;18.27;44.70;100678.44;5381702;32;34184;-65
2022/05/16 02:43:39;;;;;;;10.32;3.83;;;;;;;18.23;44.80;100676.12;5399042;32;35343;-69
2022/05/16 02:46:42;;;;;;;8.07;4.03;;;;;;;18.05;45.46;100679.03;5381310;32;34895;-66
2022/05/16 02:49:44;;;;;;;9.70;4.10;;;;;;;18.60;43.81;100670.00;5397180;32;35162;-66
2022/05/16 02:52:46;;;;;;;14.43;5.40;;;;;;;17.96;45.53;100662.78;5382236;32;35219;-68
2022/05/16 02:55:48;;;;;;;9.40;4.37;;;;;;;17.91;46.61;100671.09;5381417;32;34723;-69
2022/05/16 02:58:50;;;;;;;10.17;4.50;;;;;;;18.26;45.64;100667.91;5398385;32;46653;-69
2022/05/16 03:01:53;;;;;;;11.17;4.73;;;;;;;18.05;46.07;100671.03;5381118;32;35373;-66
2022/05/16 03:04:55;;;;;;;9.25;4.03;;;;;;;18.02;46.28;100678.34;5398871;32;34571;-69
2022/05/16 03:07:58;;;;;;;10.00;4.57;;;;;;;19.23;43.06;100667.50;5380027;32;34787;-67
2022/05/16 03:11:01;;;;;;;9.10;4.30;;;;;;;17.76;47.07;100675.59;5386733;32;34505;-68
2022/05/16 03:14:04;;;;;;;10.35;4.28;;;;;;;18.72;44.41;100673.66;5369738;32;40813;-70
2022/05/16 03:17:06;;;;;;;8.88;4.57;;;;;;;17.85;46.15;100677.66;5367208;32;35021;-66
2022/05/16 03:20:12;;;;;;;10.27;4.32;;;;;;;18.92;43.93;100669.62;5398200;32;34877;-69
2022/05/16 03:23:14;;;;;;;13.68;4.62;;;;;;;18.49;44.40;100672.56;5364457;32;34687;-65
2022/05/16 03:26:16;;;;;;;11.37;4.90;;;;;;;17.55;46.92;100677.78;5383649;32;34776;-66
2022/05/16 03:29:18;;;;;;;12.10;4.70;;;;;;;18.92;42.99;100675.81;5381395;32;34346;-69
2022/05/16 03:32:20;;;;;;;9.80;4.50;;;;;;;18.69;43.74;100673.91;5378405;32;48018;-68
2022/05/16 03:35:23;;;;;;;9.10;4.20;;;;;;;18.31;44.73;100669.31;5372721;32;35489;-69
2022/05/16 03:41:47;;;;;;;10.00;4.18;;;;;;;18.54;44.25;100666.91;5394473;32;34580;-65
2022/05/16 03:44:49;;;;;;;23.40;5.33;;;;;;;17.97;45.84;100677.78;5367373;32;45962;-67
2022/05/16 03:47:51;;;;;;;8.43;4.00;;;;;;;17.83;46.31;100679.53;5395910;32;34666;-69
2022/05/16 03:50:53;;;;;;;11.82;3.83;;;;;;;18.63;44.32;100672.47;5367065;32;34920;-70
2022/05/16 03:53:56;;;;;;;11.70;4.20;;;;;;;18.57;44.66;100675.53;5385328;32;36644;-67
2022/05/16 03:56:58;;;;;;;12.02;4.05;;;;;;;18.92;43.78;100672.28;5393238;32;35630;-69
2022/05/16 04:00:00;;;;;;;12.98;4.95;;;;;;;19.66;41.92;100681.31;5381743;32;35428;-67
2022/05/16 04:03:02;;;;;;;11.60;4.60;;;;;;;18.89;43.18;100677.84;5396194;32;34105;-66
2022/05/16 04:06:04;;;;;;;11.80;4.53;;;;;;;19.16;42.92;100680.41;5380608;32;34768;-67
2022/05/16 04:09:07;;;;;;;12.90;3.97;;;;;;;19.58;41.75;100681.00;5397844;32;34202;-69
2022/05/16 04:12:09;;;;;;;14.73;4.32;;;;;;;19.11;43.02;100671.88;5360875;32;35623;-67
2022/05/16 04:15:12;;;;;;;13.00;4.35;;;;;;;19.06;43.10;100687.31;5379349;32;34248;-69
2022/05/16 04:18:14;;;;;;;13.98;4.55;;;;;;;19.51;42.27;100685.03;5381336;32;35066;-70
2022/05/16 04:21:17;;;;;;;14.65;5.20;;;;;;;19.41;42.37;100685.69;5379475;32;34628;-70
2022/05/16 04:24:19;;;;;;;12.25;5.55;;;;;;;19.09;43.14;100698.63;5388427;32;44434;-68
2022/05/16 04:27:21;;;;;;;11.02;4.62;;;;;;;20.79;39.52;100699.56;5349778;32;34201;-69
2022/05/16 04:30:23;;;;;;;9.13;4.50;;;;;;;19.33;42.92;100704.06;5399030;32;34847;-67
2022/05/16 04:33:25;;;;;;;11.10;4.40;;;;;;;19.97;41.55;100702.13;5368990;32;34596;-66
2022/05/16 04:36:27;;;;;;;14.57;4.78;;;;;;;20.60;40.11;100699.25;5382317;32;34840;-70
2022/05/16 04:39:29;;;;;;;11.98;4.78;;;;;;;21.01;39.55;100696.94;5399791;32;34531;-70
2022/05/16 04:42:40;;;;;;;9.52;4.55;;;;;;;20.61;40.26;100703.62;5381632;32;34204;-67
2022/05/16 04:45:42;;;;;;;11.65;4.43;;;;;;;21.14;39.34;100702.19;5384290;32;34200;-71
2022/05/16 04:48:45;;;;;;;14.05;4.22;;;;;;;22.32;36.93;100696.22;5382894;32;34896;-69
2022/05/16 04:51:47;;;;;;;10.23;4.30;;;;;;;21.67;37.32;100704.28;5397748;32;34749;-69
2022/05/16 04:54:50;;;;;;;11.88;4.47;;;;;;;22.15;35.99;100699.44;5384771;32;44778;-67
2022/05/16 04:57:52;;;;;;;8.73;3.95;;;;;;;22.74;34.85;100708.81;5381779;32;34452;-70
2022/05/16 05:00:54;;;;;;;12.32;4.10;;;;;;;23.10;34.32;100697.63;5399922;32;34937;-70
2022/05/16 05:03:56;;;;;;;13.77;4.07;;;;;;;23.88;32.42;100706.84;5368642;32;38087;-66
2022/05/16 05:06:59;;;;;;;13.40;5.97;;;;;;;25.53;29.51;100695.97;5398935;32;35283;-66
2022/05/16 05:16:42;;;;;;;11.68;4.45;;;;;;;23.10;31.46;100704.81;5397991;32;35277;-67
2022/05/16 05:19:44;;;;;;;9.15;3.20;;;;;;;22.98;31.49;100704.91;5382087;32;34840;-69
2022/05/16 05:22:48;;;;;;;11.05;3.90;;;;;;;23.33;31.15;100705.53;5394957;32;34852;-66
2022/05/16 05:25:50;;;;;;;11.95;4.03;;;;;;;23.55;31.27;100702.63;5354102;32;45196;-67
2022/05/16 05:28:52;;;;;;;12.52;3.45;;;;;;;23.43;31.17;100709.06;5396928;32;35000;-66
2022/05/16 05:31:54;;;;;;;11.20;3.50;;;;;;;24.89;28.59;100694.87;5383817;32;34165;-69
2022/05/16 05:34:56;;;;;;;14.57;3.60;;;;;;;24.15;29.85;100698.16;5381280;32;33775;-68
2022/05/16 05:37:59;;;;;;;16.95;4.25;;;;;;;25.11;28.55;100699.94;5387023;32;34180;-66
2022/05/16 05:41:01;;;;;;;8.90;3.55;;;;;;;26.42;26.35;100706.94;5342377;32;34178;-67
2022/05/16 05:44:04;;;;;;;11.15;3.25;;;;;;;25.09;27.93;100710.00;5651191;27;35286;-96
2022/05/16 05:47:13;;;;;;;10.18;3.25;;;;;;;25.30;27.95;100709.78;5396666;32;33288;-93
2022/05/16 05:50:18;;;;;;;11.27;4.57;;;;;;;24.89;27.84;100700.25;5409418;32;43607;-95
2022/05/16 05:53:37;;;;;;;7.12;3.08;;;;;;;24.89;28.19;100708.31;5404132;32;34942;-95
2022/05/16 05:59:58;;;;;;;10.20;3.47;;;;;;;24.51;28.92;100704.69;5306913;32;34479;-69
2022/05/16 06:03:00;;;;;;;10.57;3.40;;;;;;;25.18;27.71;100713.66;5344636;32;34208;-85
2022/05/16 06:06:03;;;;;;;9.10;2.72;;;;;;;23.92;28.88;100718.19;5330399;32;34143;-69
2022/05/16 06:09:05;;;;;;;11.98;3.15;;;;;;;25.00;27.95;100710.00;5330374;32;34064;-72
2022/05/16 06:12:09;;;;;;;6.68;3.45;;;;;;;25.30;27.39;100723.25;5319282;32;35730;-84
2022/05/16 06:15:12;;;;;;;10.40;3.45;;;;;;;25.87;26.96;100713.22;5336022;32;43730;-81
2022/05/16 06:18:15;;;;;;;5.97;2.50;;;;;;;27.36;24.75;100720.59;5352562;32;34134;-92
2022/05/16 06:21:17;;;;;;;;;;;;;;;25.69;26.65;100722.22;5355151;32;34093;-79
2022/05/16 06:27:40;;;;;;;10.27;3.28;;;;;;;24.50;28.29;100723.66;5342480;32;37479;-77
2022/05/16 06:30:44;;;;;;;9.73;3.62;;;;;;;25.31;27.56;100716.88;5348076;32;44556;-88
2022/05/16 06:33:47;;;;;;;12.32;2.90;;;;;;;27.74;24.40;100718.44;5345259;32;35356;-76
2022/05/16 06:36:49;;;;;;;8.15;3.10;;;;;;;26.79;25.15;100706.72;5330675;32;34098;-78
2022/05/16 06:39:51;;;;;;;8.05;2.70;;;;;;;27.29;24.43;100711.47;5345153;32;34132;-77
2022/05/16 06:42:54;;;;;;;7.90;2.50;;;;;;;28.69;22.62;100697.34;5324685;32;34357;-70
2022/05/16 06:45:56;;;;;;;5.07;2.28;;;;;;;26.88;24.93;100713.88;5334349;32;34103;-74
2022/05/16 06:48:59;;;;;;;4.60;2.28;;;;;;;28.89;21.89;100704.09;5325985;32;36502;-70
2022/05/16 06:52:01;;;;;;;7.70;2.50;;;;;;;30.75;19.97;100698.00;5324203;32;34043;-77
2022/05/16 06:55:04;;;;;;;9.77;2.70;;;;;;;27.22;24.14;100707.72;5345295;32;35279;-77
2022/05/16 06:58:06;;;;;;;11.12;4.00;;;;;;;27.53;23.86;100702.66;5314789;32;33993;-77
2022/05/16 07:01:09;;;;;;;11.60;4.20;;;;;;;28.52;23.00;100701.91;5338271;32;34267;-78
2022/05/16 07:04:11;;;;;;;10.07;2.58;;;;;;;28.58;22.47;100704.78;5320284;32;44362;-72
2022/05/16 07:07:14;;;;;;;6.70;2.10;;;;;;;29.04;20.49;100701.56;5335084;32;34262;-71
2022/05/16 07:10:16;;;;;;;9.90;3.42;;;;;;;30.30;18.93;100706.97;5345038;32;35723;-74
2022/05/16 07:13:18;;;;;;;12.05;2.22;;;;;;;31.18;17.90;100693.66;5304977;32;35287;-73
2022/05/16 07:16:21;;;;;;;7.70;2.15;;;;;;;29.87;19.21;100706.53;5341212;32;34188;-70
2022/05/16 07:19:23;;;;;;;5.30;1.80;;;;;;;29.97;19.27;100703.62;5328067;32;35606;-73
2022/05/16 07:22:25;;;;;;;6.87;2.35;;;;;;;31.83;16.90;100710.25;5344794;32;35807;-71
2022/05/16 07:25:29;;;;;;;4.43;1.75;;;;;;;29.96;18.41;100702.78;5339346;32;35911;-72
2022/05/16 07:28:31;;;;;;;5.32;1.77;;;;;;;30.85;17.69;100700.44;5341255;32;34201;-72
2022/05/16 07:31:34;;;;;;;9.32;2.00;;;;;;;32.44;16.04;100702.56;5319688;32;34055;-75
2022/05/16 07:34:37;;;;;;;6.35;1.92;;;;;;;32.28;16.26;100703.62;5326229;32;35196;-75
2022/05/16 07:37:40;;;;;;;7.93;2.75;;;;;;;31.78;16.89;100708.06;5353082;32;35306;-75
2022/05/16 07:40:42;;;;;;;3.75;1.73;;;;;;;28.91;19.77;100715.59;5333484;32;46453;-71
2022/05/16 07:43:44;;;;;;;6.53;1.80;;;;;;;31.75;16.88;100709.28;5346112;32;35345;-75
2022/05/16 07:46:47;;;;;;;4.80;1.83;;;;;;;31.82;16.70;100712.13;5345747;32;35382;-71
2022/05/16 07:49:49;;;;;;;5.47;2.00;;;;;;;30.92;17.22;100704.13;5340494;32;34153;-75
2022/05/16 07:52:51;;;;;;;4.72;1.85;;;;;;;32.18;16.22;100701.22;5325194;32;33030;-81
2022/05/16 07:55:55;;;;;;;4.85;2.20;;;;;;;31.91;16.32;100700.09;5320486;32;35381;-80
2022/05/16 07:58:57;;;;;;;5.40;2.00;;;;;;;31.23;17.40;100701.22;5334267;32;35774;-76
2022/05/16 08:02:00;;;;;;;7.93;2.15;;;;;;;32.02;16.54;100701.47;5331686;32;34104;-75
2022/05/16 08:05:03;;;;;;;5.80;2.20;;;;;;;32.65;16.01;100697.06;5359093;32;34303;-72
2022/05/16 08:11:27;;;;;;;6.18;2.20;;;;;;;30.25;18.26;100707.50;5330197;32;34153;-76
2022/05/16 08:14:29;;;;;;;7.18;2.17;;;;;;;30.16;18.48;100704.03;5341445;32;35586;-75
2022/05/16 08:17:31;;;;;;;5.95;2.53;;;;;;;29.86;18.83;100704.84;5333976;32;34117;-75
2022/05/16 08:20:35;;;;;;;6.55;2.12;;;;;;;29.62;19.29;100705.81;5348286;32;34054;-79
2022/05/16 08:23:37;;;;;;;11.68;2.40;;;;;;;29.47;19.61;100708.37;5348277;32;34100;-81
2022/05/16 08:26:40;;;;;;;10.02;4.00;;;;;;;28.26;20.76;100713.69;5346784;32;34097;-75
2022/05/16 08:29:42;;;;;;;5.85;2.10;;;;;;;29.72;19.59;100702.91;5340808;32;45608;-67
2022/05/16 08:32:45;;;;;;;11.35;4.43;;;;;;;29.40;19.38;100707.41;5321439;32;32875;-73
2022/05/16 08:42:54;;;;;;;6.32;1.90;;;;;;;31.88;17.02;100702.34;5356289;32;36349;-81
2022/05/16 08:46:04;;;;;;;5.43;2.40;;;;;;;30.51;18.09;100701.72;5339066;32;34348;-81
2022/05/16 08:49:15;;;;;;;6.05;2.22;;;;;;;30.70;18.05;100701.25;5332139;32;35534;-79
2022/05/16 08:52:40;;;;;;;7.40;2.20;;;;;;;31.10;17.45;100695.59;5346308;32;45954;-75
2022/05/16 08:56:04;;;;;;;7.15;2.10;;;;;;;28.66;20.30;100694.97;5316900;32;44591;-73
2022/05/16 08:59:09;;;;;;;5.50;2.20;;;;;;;31.92;17.25;100692.78;5334075;32;35047;-74
2022/05/16 09:02:18;;;;;;;4.47;2.00;;;;;;;32.63;16.55;100682.84;5341517;32;47080;-73
2022/05/16 09:05:33;;;;;;;11.15;2.25;;;;;;;32.69;16.59;100683.94;5332097;32;34102;-71
2022/05/16 09:08:46;;;;;;;6.70;2.30;;;;;;;33.26;15.90;100686.44;5353578;32;34239;-71
2022/05/16 09:12:10;;;;;;;5.07;2.05;;;;;;;33.52;15.72;100683.06;5318409;32;44546;-73
2022/05/16 09:15:12;;;;;;;5.15;2.03;;;;;;;31.56;17.64;100685.44;5332775;32;44737;-74
2022/05/16 09:18:24;;;;;;;5.95;2.05;;;;;;;32.79;16.54;100687.16;5349187;32;35287;-87
2022/05/16 09:21:59;;;;;;;7.05;2.70;;;;;;;33.91;15.29;100689.72;5328969;32;34354;-74
2022/05/16 09:25:52;;;;;;;5.85;2.17;;;;;;;31.91;17.20;100688.37;5341979;32;35777;-76
2022/05/16 09:28:58;;;;;;;6.47;2.20;;;;;;;34.47;14.80;100676.63;5336904;32;34223;-71
2022/05/16 09:32:11;;;;;;;5.43;2.15;;;;;;;34.34;14.85;100679.34;5338953;32;33672;-73
2022/05/16 09:35:29;;;;;;;7.30;2.58;;;;;;;34.60;14.86;100675.81;5359020;32;44741;-72
2022/05/16 09:38:32;;;;;;;6.75;2.72;;;;;;;34.32;14.96;100673.22;5335990;32;35387;-69
2022/05/16 09:41:34;;;;;;;8.43;2.00;;;;;;;32.30;16.93;100677.91;5335932;32;34178;-76
2022/05/16 09:44:48;;;;;;;4.20;1.90;;;;;;;34.77;14.75;100659.81;5345002;32;35292;-77
2022/05/16 09:47:50;;;;;;;7.95;2.33;;;;;;;33.64;15.74;100661.53;5328183;32;44625;-80
2022/05/16 09:51:04;;;;;;;5.03;2.37;;;;;;;32.78;16.15;100660.97;5357223;32;34119;-76
2022/05/16 09:54:35;;;;;;;7.85;2.50;;;;;;;31.27;18.14;100661.84;5332418;32;34051;-75
2022/05/16 09:57:53;;;;;;;11.35;2.80;;;;;;;34.38;15.22;100653.28;5335134;32;34229;-79
2022/05/16 10:00:59;;;;;;;7.93;2.40;;;;;;;33.74;15.60;100656.50;5332320;32;34097;-76
2022/05/16 10:04:15;;;;;;;7.80;2.25;;;;;;;34.24;15.41;100651.59;5316186;32;34295;-73
2022/05/16 10:07:22;;;;;;;9.45;2.25;;;;;;;33.82;15.40;100653.63;5342076;32;43976;-75
2022/05/16 10:10:28;;;;;;;7.22;2.40;;;;;;;34.64;15.06;100627.91;5336742;32;35410;-76
2022/05/16 10:13:31;;;;;;;5.85;2.30;;;;;;;36.05;13.66;100629.97;5311326;32;34140;-78
2022/05/16 10:16:36;;;;;;;9.02;2.33;;;;;;;33.92;15.33;100632.25;5353601;32;35883;-78
2022/05/16 10:19:40;;;;;;;5.37;2.28;;;;;;;33.60;16.12;100627.53;5319107;32;36716;-79
2022/05/16 10:22:45;;;;;;;5.20;2.62;;;;;;;36.83;13.13;100615.81;5342245;32;47105;-76
2022/05/16 10:26:08;;;;;;;6.60;2.20;;;;;;;35.41;14.19;100620.78;5317239;32;33829;-90
2022/05/16 10:29:20;;;;;;;5.82;2.10;;;;;;;34.45;15.38;100621.41;5344383;32;35368;-73
2022/05/16 10:36:00;;;;;;;6.45;2.30;;;;;;;37.56;12.52;100602.16;5339331;32;34264;-74
2022/05/16 10:39:05;;;;;;;6.25;2.30;;;;;;;34.05;15.45;100627.88;5355318;32;36401;-74
2022/05/16 10:42:15;;;;;;;6.55;3.42;;;;;;;34.62;14.96;100612.81;5384113;27;34180;-94
2022/05/16 10:45:20;;;;;;;6.80;2.40;;;;;;;31.68;17.71;100624.13;5366710;32;43954;-95
2022/05/16 10:48:39;;;;;;;7.85;2.58;;;;;;;33.75;15.76;100624.63;5372783;32;35362;-90
2022/05/16 10:51:54;;;;;;;5.70;2.40;;;;;;;30.05;19.73;100625.81;5397006;32;44188;-95
2022/05/16 10:55:01;;;;;;;8.32;2.75;;;;;;;30.25;19.54;100626.19;5405078;32;34336;-91
2022/05/16 10:58:38;;;;;;;5.10;2.45;;;;;;;30.37;19.34;100623.87;5406287;32;33707;-94
2022/05/16 11:01:57;;;;;;;8.55;2.58;;;;;;;30.64;18.87;100604.28;5373275;32;33676;-93
2022/05/16 11:05:13;;;;;;;6.87;2.33;;;;;;;29.08;20.79;100621.72;5378307;32;33836;-91
2022/05/16 11:08:29;;;;;;;7.43;2.50;;;;;;;32.90;16.81;100606.84;5367225;32;44964;-90
2022/05/16 11:11:54;;;;;;;15.23;2.90;;;;;;;33.66;15.75;100607.63;5375262;32;34229;-94
2022/05/16 11:15:08;;;;;;;3.30;2.08;;;;;;;35.45;14.43;100597.50;5373558;32;34330;-90
2022/05/16 11:18:37;;;;;;;7.12;2.85;;;;;;;37.24;12.95;100589.69;5377752;32;34393;-91
2022/05/16 11:22:07;;;;;;;6.03;2.50;;;;;;;35.61;14.25;100587.94;5365218;32;35980;-89
2022/05/16 11:25:34;;;;;;;9.43;2.72;;;;;;;38.19;12.21;100576.94;5378649;32;34507;-91
2022/05/16 11:29:17;;;;;;;6.85;2.58;;;;;;;36.36;13.73;100582.56;5367750;32;36640;-90
2022/05/16 11:32:39;;;;;;;9.63;2.65;;;;;;;38.26;12.30;100578.75;5382216;32;34255;-91
2022/05/16 11:35:48;;;;;;;12.40;2.72;;;;;;;35.34;14.44;100586.37;5385307;32;33707;-89
2022/05/16 11:39:13;;;;;;;9.70;2.85;;;;;;;38.84;11.72;100562.28;5378276;32;34497;-94
2022/05/16 11:42:21;;;;;;;7.00;2.50;;;;;;;39.75;11.02;100567.97;5393256;32;44075;-93
2022/05/16 11:45:42;;;;;;;7.47;2.62;;;;;;;38.58;11.98;100552.63;5370739;32;34208;-92
2022/05/16 11:49:04;;;;;;;9.45;2.90;;;;;;;37.03;13.15;100558.09;5364615;32;44005;-93
2022/05/16 11:52:40;;;;;;;9.93;2.67;;;;;;;39.04;11.49;100558.31;5375168;32;34566;-90
2022/05/16 12:02:51;;;;;;;13.07;3.45;;;;;;;35.93;14.17;100538.75;5394940;32;35277;-92
2022/05/16 12:06:35;;;;;;;11.10;2.80;;;;;;;37.74;12.80;100535.41;5391331;32;34395;-91
2022/05/16 12:09:52;;;;;;;14.50;3.65;;;;;;;38.78;11.96;100523.97;5375553;32;35584;-90
2022/05/16 12:13:22;;;;;;;11.43;2.70;;;;;;;36.29;13.97;100527.91;5381096;32;35725;-93
2022/05/16 12:16:32;;;;;;;9.25;2.83;;;;;;;38.84;11.97;100526.56;5389924;32;34541;-93
2022/05/16 12:19:40;;;;;;;12.27;4.53;;;;;;;38.77;12.01;100520.34;5400373;32;32685;-94
2022/05/16 12:22:47;;;;;;;11.25;2.83;;;;;;;32.96;16.97;100518.94;5392237;32;44614;-94
2022/05/16 12:25:51;;;;;;;11.32;3.20;;;;;;;32.86;17.29;100525.63;5393889;32;34131;-94
2022/05/16 12:29:10;;;;;;;11.63;3.15;;;;;;;32.37;18.40;100519.41;5367050;32;34143;-92
2022/05/16 12:32:43;;;;;;;8.18;2.75;;;;;;;33.13;17.66;100523.00;5398245;32;44681;-92
2022/05/16 12:35:53;;;;;;;6.82;3.15;;;;;;;33.77;16.91;100508.09;5372787;27;43633;-73
2022/05/16 12:39:29;;;;;;;7.95;3.03;;;;;;;31.39;19.37;100512.84;5379874;32;35177;-79
2022/05/16 12:42:47;;;;;;;9.15;3.08;;;;;;;31.92;18.93;100506.09;5367639;32;35577;-72
2022/05/16 12:46:15;;;;;;;6.55;2.80;;;;;;;30.30;20.89;100504.50;5383950;32;44476;-69
2022/05/16 12:49:44;;;;;;;8.00;2.90;;;;;;;31.28;19.69;100495.19;5359482;32;44727;-70
2022/05/16 12:52:56;;;;;;;7.03;2.78;;;;;;;32.06;19.07;100479.84;5368941;32;45926;-77
2022/05/16 12:56:07;;;;;;;7.47;2.90;;;;;;;32.40;18.47;100472.81;5379347;32;34204;-74
2022/05/16 12:59:20;;;;;;;5.43;2.80;;;;;;;31.40;19.67;100471.94;5350508;32;34548;-74
2022/05/16 13:02:44;;;;;;;7.68;3.33;;;;;;;31.40;19.69;100471.09;5366085;32;36864;-72
2022/05/16 13:06:33;;;;;;;11.35;4.40;;;;;;;31.64;19.49;100465.28;5384007;32;44800;-72
2022/05/16 13:10:00;;;;;;;7.62;3.10;;;;;;;30.62;21.02;100470.75;5360215;32;35732;-68
2022/05/16 13:13:24;;;;;;;9.20;3.20;;;;;;;31.83;19.86;100449.38;5361844;32;34085;-77
2022/05/16 13:16:36;;;;;;;9.10;3.58;;;;;;;29.89;21.81;100460.66;5359216;32;34303;-72
2022/05/16 13:19:44;;;;;;;10.95;3.35;;;;;;;30.03;22.02;100454.44;5349067;32;36204;-83
2022/05/16 13:22:48;;;;;;;10.52;3.10;;;;;;;29.72;22.37;100445.59;5391665;32;44508;-85
2022/05/16 13:29:21;;;;;;;9.20;3.10;;;;;;;30.47;21.72;100446.34;5371275;32;44456;-72
2022/05/16 13:32:29;;;;;;;8.00;3.30;;;;;;;31.44;20.85;100442.53;5386849;32;34053;-71
2022/05/16 13:35:37;;;;;;;9.30;3.37;;;;;;;30.78;21.30;100442.59;5372314;32;33750;-70
2022/05/16 13:38:39;;;;;;;9.65;3.58;;;;;;;31.55;20.29;100434.66;5380957;32;35868;-74
2022/05/16 13:41:41;;;;;;;5.03;2.83;;;;;;;31.70;20.34;100436.47;5375618;32;44479;-77
2022/05/16 13:44:45;;;;;;;11.15;3.20;;;;;;;31.67;20.19;100439.56;5368832;32;35379;-73
2022/05/16 13:47:47;;;;;;;7.12;3.30;;;;;;;30.07;22.03;100436.75;5366300;32;34238;-71
2022/05/16 13:50:50;;;;;;;10.07;3.50;;;;;;;29.54;22.82;100432.34;5353451;32;35407;-70
2022/05/16 13:53:53;;;;;;;8.50;3.40;;;;;;;29.22;23.23;100428.00;5373574;32;33720;-71
2022/05/16 13:56:58;;;;;;;9.60;3.65;;;;;;;30.66;21.50;100431.38;5357790;32;34387;-75
2022/05/16 14:00:23;;;;;;;15.25;3.83;;;;;;;30.03;22.45;100421.06;5366898;32;35524;-69
2022/05/16 14:03:32;;;;;;;9.55;3.58;;;;;;;29.46;23.25;100419.69;5373708;32;34311;-71
2022/05/16 14:06:41;;;;;;;8.77;3.58;;;;;;;30.29;22.13;100420.66;5345571;32;35148;-73
2022/05/16 14:09:50;;;;;;;10.18;4.78;;;;;;;30.69;21.72;100422.88;5389352;32;45864;-72
2022/05/16 14:12:59;;;;;;;10.85;3.70;;;;;;;30.26;22.29;100427.25;5345298;32;34636;-68
2022/05/16 14:16:08;;;;;;;11.00;3.10;;;;;;;31.00;21.56;100413.63;5367435;32;34219;-66
2022/05/16 14:19:13;;;;;;;7.03;3.20;;;;;;;30.61;21.63;100414.81;5376172;32;44811;-69
2022/05/16 14:22:34;;;;;;;11.00;3.60;;;;;;;30.74;21.94;100419.59;5379096;32;34192;-77
2022/05/16 14:25:41;;;;;;;13.32;4.75;;;;;;;30.42;22.26;100407.28;5376862;32;35406;-70
2022/05/16 14:28:47;;;;;;;8.63;3.20;;;;;;;29.26;23.72;100403.09;5371106;32;47087;-67
2022/05/16 14:31:58;;;;;;;10.43;5.00;;;;;;;29.22;23.99;100398.22;5384858;32;35352;-71
2022/05/16 14:35:12;;;;;;;11.20;3.72;;;;;;;30.07;22.89;100396.09;5353053;32;35882;-78
2022/05/16 14:38:14;;;;;;;10.73;3.37;;;;;;;30.51;22.31;100397.97;5376312;32;44677;-75
2022/05/16 14:41:24;;;;;;;8.70;3.03;;;;;;;29.97;23.26;100395.56;5384733;32;36099;-74
2022/05/16 14:44:36;;;;;;;9.35;3.55;;;;;;;30.93;22.03;100386.44;5374787;32;33972;-75
2022/05/16 14:47:41;;;;;;;7.55;2.90;;;;;;;30.13;23.11;100389.97;5379525;32;34677;-70
2022/05/16 14:50:44;;;;;;;12.82;3.55;;;;;;;31.75;21.13;100385.94;5363126;32;44369;-69
2022/05/16 14:53:47;;;;;;;8.52;3.33;;;;;;;31.81;21.11;100379.72;5380579;32;34272;-70
2022/05/16 14:56:49;;;;;;;7.18;3.20;;;;;;;31.09;21.85;100384.47;5367910;32;34195;-68
2022/05/16 14:59:52;;;;;;;9.75;3.25;;;;;;;31.27;21.97;100377.59;5363454;32;34125;-73
2022/05/16 15:06:15;;;;;;;8.52;3.30;;;;;;;30.70;22.34;100375.72;5349582;32;44233;-72
2022/05/16 15:09:20;;;;;;;6.00;3.20;;;;;;;29.61;23.78;100390.81;5363859;32;34092;-70
2022/05/16 15:12:22;;;;;;;9.18;2.97;;;;;;;30.61;22.79;100382.28;5332460;32;36463;-72
2022/05/16 15:15:25;;;;;;;12.52;4.95;;;;;;;30.25;23.01;100381.38;5346338;32;35374;-69
2022/05/16 15:18:27;;;;;;;7.87;3.08;;;;;;;29.88;23.57;100380.38;5359283;32;35226;-69